sensor_id;sensor_type;location;lat;lon;timestamp;P1;durP1;ratioP1;P2;durP2;ratioP2
75885;SDS011;64561;44.018;10.144;2022-12-16T00:00:04;8.82;;;2.88;;
75885;SDS011;64561;44.018;10.144;2022-12-16T00:02:33;6.43;;;3.03;;
75885;SDS011;64561;44.018;10.144;2022-12-16T00:05:00;9.38;;;2.85;;
75885;SDS011;64561;44.018;10.144;2022-12-16T00:07:27;7.70;;;2.67;;
75885;SDS011;64561;44.018;10.144;2022-12-16T00:09:53;7.97;;;2.63;;
75885;SDS011;64561;44.018;10.144;2022-12-16T00:12:20;5.03;;;1.40;;
75885;SDS011;64561;44.018;10.144;2022-12-16T00:14:47;9.35;;;1.92;;
75885;SDS011;64561;44.018;10.144;2022-12-16T00:17:14;5.88;;;1.77;;
75885;SDS011;64561;44.018;10.144;2022-12-16T00:19:40;5.00;;;1.73;;
75885;SDS011;64561;44.018;10.144;2022-12-16T00:22:07;8.75;;;2.28;;
75885;SDS011;64561;44.018;10.144;2022-12-16T00:24:35;4.78;;;1.65;;
75885;SDS011;64561;44.018;10.144;2022-12-16T00:27:02;6.50;;;2.00;;
75885;SDS011;64561;44.018;10.144;2022-12-16T00:29:28;7.07;;;2.30;;
75885;SDS011;64561;44.018;10.144;2022-12-16T00:31:55;6.78;;;2.05;;
75885;SDS011;64561;44.018;10.144;2022-12-16T00:34:22;8.13;;;2.47;;
75885;SDS011;64561;44.018;10.144;2022-12-16T00:36:49;9.13;;;2.58;;
75885;SDS011;64561;44.018;10.144;2022-12-16T00:39:16;7.97;;;2.30;;
75885;SDS011;64561;44.018;10.144;2022-12-16T00:41:43;3.85;;;1.83;;
75885;SDS011;64561;44.018;10.144;2022-12-16T00:44:10;11.13;;;2.33;;
75885;SDS011;64561;44.018;10.144;2022-12-16T00:46:36;5.93;;;1.90;;
75885;SDS011;64561;44.018;10.144;2022-12-16T00:49:03;5.75;;;2.17;;
75885;SDS011;64561;44.018;10.144;2022-12-16T00:51:30;9.35;;;3.35;;
75885;SDS011;64561;44.018;10.144;2022-12-16T00:53:57;7.10;;;2.22;;
75885;SDS011;64561;44.018;10.144;2022-12-16T00:56:24;8.27;;;2.30;;
75885;SDS011;64561;44.018;10.144;2022-12-16T00:58:51;7.10;;;1.92;;
75885;SDS011;64561;44.018;10.144;2022-12-16T01:01:20;6.65;;;2.05;;
75885;SDS011;64561;44.018;10.144;2022-12-16T01:03:47;6.57;;;2.25;;
75885;SDS011;64561;44.018;10.144;2022-12-16T01:06:15;6.43;;;2.00;;
75885;SDS011;64561;44.018;10.144;2022-12-16T01:08:42;7.47;;;2.13;;
75885;SDS011;64561;44.018;10.144;2022-12-16T01:11:15;5.50;;;2.10;;
75885;SDS011;64561;44.018;10.144;2022-12-16T01:13:43;6.32;;;2.40;;
75885;SDS011;64561;44.018;10.144;2022-12-16T01:16:11;7.35;;;2.65;;
75885;SDS011;64561;44.018;10.144;2022-12-16T01:18:38;7.35;;;2.00;;
75885;SDS011;64561;44.018;10.144;2022-12-16T01:21:05;8.38;;;2.13;;
75885;SDS011;64561;44.018;10.144;2022-12-16T01:23:33;3.55;;;1.65;;
75885;SDS011;64561;44.018;10.144;2022-12-16T01:26:01;3.95;;;1.55;;
75885;SDS011;64561;44.018;10.144;2022-12-16T01:28:28;6.22;;;1.80;;
75885;SDS011;64561;44.018;10.144;2022-12-16T01:30:59;4.65;;;1.70;;
75885;SDS011;64561;44.018;10.144;2022-12-16T01:33:30;5.78;;;1.80;;
75885;SDS011;64561;44.018;10.144;2022-12-16T01:36:02;5.13;;;2.10;;
75885;SDS011;64561;44.018;10.144;2022-12-16T01:38:31;6.50;;;1.70;;
75885;SDS011;64561;44.018;10.144;2022-12-16T01:40:58;6.03;;;1.67;;
75885;SDS011;64561;44.018;10.144;2022-12-16T01:43:27;4.88;;;1.98;;
75885;SDS011;64561;44.018;10.144;2022-12-16T01:46:05;2.88;;;1.38;;
75885;SDS011;64561;44.018;10.144;2022-12-16T01:51:38;10.30;;;3.72;;
75885;SDS011;64561;44.018;10.144;2022-12-16T01:54:17;6.45;;;2.45;;
75885;SDS011;64561;44.018;10.144;2022-12-16T01:56:48;5.30;;;1.85;;
75885;SDS011;64561;44.018;10.144;2022-12-16T01:59:20;5.97;;;2.45;;
75885;SDS011;64561;44.018;10.144;2022-12-16T02:01:50;4.82;;;2.47;;
75885;SDS011;64561;44.018;10.144;2022-12-16T02:04:18;5.90;;;2.70;;
75885;SDS011;64561;44.018;10.144;2022-12-16T02:06:45;9.43;;;2.80;;
75885;SDS011;64561;44.018;10.144;2022-12-16T02:09:12;6.45;;;3.53;;
75885;SDS011;64561;44.018;10.144;2022-12-16T02:25:57;7.00;;;2.65;;
75885;SDS011;64561;44.018;10.144;2022-12-16T02:36:55;3.92;;;1.98;;
75885;SDS011;64561;44.018;10.144;2022-12-16T02:39:35;5.82;;;2.25;;
75885;SDS011;64561;44.018;10.144;2022-12-16T02:42:12;11.57;;;2.90;;
75885;SDS011;64561;44.018;10.144;2022-12-16T02:47:36;8.00;;;2.05;;
75885;SDS011;64561;44.018;10.144;2022-12-16T02:50:05;5.78;;;1.75;;
75885;SDS011;64561;44.018;10.144;2022-12-16T02:52:42;9.75;;;1.90;;
75885;SDS011;64561;44.018;10.144;2022-12-16T02:55:09;9.43;;;1.90;;
75885;SDS011;64561;44.018;10.144;2022-12-16T03:00:15;13.25;;;3.10;;
75885;SDS011;64561;44.018;10.144;2022-12-16T03:07:58;10.00;;;3.13;;
75885;SDS011;64561;44.018;10.144;2022-12-16T03:10:32;9.32;;;2.85;;
75885;SDS011;64561;44.018;10.144;2022-12-16T03:13:04;7.82;;;2.63;;
75885;SDS011;64561;44.018;10.144;2022-12-16T03:15:32;6.43;;;2.72;;
75885;SDS011;64561;44.018;10.144;2022-12-16T03:18:01;5.68;;;2.10;;
75885;SDS011;64561;44.018;10.144;2022-12-16T03:23:07;7.82;;;2.00;;
75885;SDS011;64561;44.018;10.144;2022-12-16T03:25:40;7.32;;;2.45;;
75885;SDS011;64561;44.018;10.144;2022-12-16T03:28:44;8.57;;;2.85;;
75885;SDS011;64561;44.018;10.144;2022-12-16T03:34:02;6.20;;;2.42;;
75885;SDS011;64561;44.018;10.144;2022-12-16T03:36:36;5.93;;;2.20;;
75885;SDS011;64561;44.018;10.144;2022-12-16T03:39:05;4.97;;;2.28;;
75885;SDS011;64561;44.018;10.144;2022-12-16T03:41:34;9.40;;;2.20;;
75885;SDS011;64561;44.018;10.144;2022-12-16T03:44:02;9.38;;;2.10;;
75885;SDS011;64561;44.018;10.144;2022-12-16T03:46:29;5.82;;;1.92;;
75885;SDS011;64561;44.018;10.144;2022-12-16T03:48:57;3.83;;;1.70;;
75885;SDS011;64561;44.018;10.144;2022-12-16T03:51:24;5.45;;;1.88;;
75885;SDS011;64561;44.018;10.144;2022-12-16T03:53:51;7.68;;;2.20;;
75885;SDS011;64561;44.018;10.144;2022-12-16T03:56:17;10.93;;;2.40;;
75885;SDS011;64561;44.018;10.144;2022-12-16T03:58:44;8.13;;;2.85;;
75885;SDS011;64561;44.018;10.144;2022-12-16T04:01:12;5.25;;;1.95;;
75885;SDS011;64561;44.018;10.144;2022-12-16T04:03:39;4.15;;;1.80;;
75885;SDS011;64561;44.018;10.144;2022-12-16T04:06:06;5.97;;;1.95;;
75885;SDS011;64561;44.018;10.144;2022-12-16T04:08:33;3.78;;;1.73;;
75885;SDS011;64561;44.018;10.144;2022-12-16T04:11:03;4.13;;;1.48;;
75885;SDS011;64561;44.018;10.144;2022-12-16T04:13:48;4.72;;;1.70;;
75885;SDS011;64561;44.018;10.144;2022-12-16T04:16:34;6.07;;;1.75;;
75885;SDS011;64561;44.018;10.144;2022-12-16T04:19:23;5.43;;;2.30;;
75885;SDS011;64561;44.018;10.144;2022-12-16T04:22:14;3.65;;;1.15;;
75885;SDS011;64561;44.018;10.144;2022-12-16T04:25:08;4.40;;;1.50;;
75885;SDS011;64561;44.018;10.144;2022-12-16T04:27:39;7.20;;;1.40;;
75885;SDS011;64561;44.018;10.144;2022-12-16T04:30:13;2.33;;;1.08;;
75885;SDS011;64561;44.018;10.144;2022-12-16T04:33:06;3.35;;;1.20;;
75885;SDS011;64561;44.018;10.144;2022-12-16T04:35:56;7.30;;;1.98;;
75885;SDS011;64561;44.018;10.144;2022-12-16T04:38:41;4.70;;;1.42;;
75885;SDS011;64561;44.018;10.144;2022-12-16T04:41:27;4.40;;;1.08;;
75885;SDS011;64561;44.018;10.144;2022-12-16T04:44:13;4.20;;;1.10;;
75885;SDS011;64561;44.018;10.144;2022-12-16T04:46:59;4.55;;;1.27;;
75885;SDS011;64561;44.018;10.144;2022-12-16T04:50:01;4.45;;;1.30;;
75885;SDS011;64561;44.018;10.144;2022-12-16T04:52:49;3.50;;;1.38;;
75885;SDS011;64561;44.018;10.144;2022-12-16T04:55:34;7.25;;;1.65;;
75885;SDS011;64561;44.018;10.144;2022-12-16T04:58:25;4.75;;;1.40;;
75885;SDS011;64561;44.018;10.144;2022-12-16T05:01:11;5.03;;;1.30;;
75885;SDS011;64561;44.018;10.144;2022-12-16T05:03:56;6.60;;;1.30;;
75885;SDS011;64561;44.018;10.144;2022-12-16T05:06:42;3.50;;;1.25;;
75885;SDS011;64561;44.018;10.144;2022-12-16T05:09:27;1.98;;;0.80;;
75885;SDS011;64561;44.018;10.144;2022-12-16T05:12:13;3.13;;;1.40;;
75885;SDS011;64561;44.018;10.144;2022-12-16T05:14:58;5.43;;;2.25;;
75885;SDS011;64561;44.018;10.144;2022-12-16T05:17:44;5.60;;;1.70;;
75885;SDS011;64561;44.018;10.144;2022-12-16T05:20:29;3.80;;;0.95;;
75885;SDS011;64561;44.018;10.144;2022-12-16T05:23:14;6.47;;;1.88;;
75885;SDS011;64561;44.018;10.144;2022-12-16T05:26:00;3.38;;;1.70;;
75885;SDS011;64561;44.018;10.144;2022-12-16T05:28:46;6.68;;;2.50;;
75885;SDS011;64561;44.018;10.144;2022-12-16T05:31:32;5.05;;;2.05;;
75885;SDS011;64561;44.018;10.144;2022-12-16T05:34:17;8.48;;;1.90;;
75885;SDS011;64561;44.018;10.144;2022-12-16T05:37:02;2.95;;;1.27;;
75885;SDS011;64561;44.018;10.144;2022-12-16T05:39:48;4.03;;;1.88;;
75885;SDS011;64561;44.018;10.144;2022-12-16T05:42:34;2.47;;;1.17;;
75885;SDS011;64561;44.018;10.144;2022-12-16T05:45:19;4.30;;;1.30;;
75885;SDS011;64561;44.018;10.144;2022-12-16T05:48:05;3.05;;;1.60;;
75885;SDS011;64561;44.018;10.144;2022-12-16T05:50:50;2.28;;;1.40;;
75885;SDS011;64561;44.018;10.144;2022-12-16T05:53:35;4.93;;;1.65;;
75885;SDS011;64561;44.018;10.144;2022-12-16T05:56:21;5.65;;;1.30;;
75885;SDS011;64561;44.018;10.144;2022-12-16T05:59:06;2.83;;;1.45;;
75885;SDS011;64561;44.018;10.144;2022-12-16T06:01:52;3.95;;;1.90;;
75885;SDS011;64561;44.018;10.144;2022-12-16T06:04:37;7.13;;;2.17;;
75885;SDS011;64561;44.018;10.144;2022-12-16T06:07:23;7.78;;;2.67;;
75885;SDS011;64561;44.018;10.144;2022-12-16T06:10:08;5.35;;;2.63;;
75885;SDS011;64561;44.018;10.144;2022-12-16T06:12:54;8.15;;;3.58;;
75885;SDS011;64561;44.018;10.144;2022-12-16T06:15:39;8.98;;;3.53;;
75885;SDS011;64561;44.018;10.144;2022-12-16T06:18:32;6.75;;;2.80;;
75885;SDS011;64561;44.018;10.144;2022-12-16T06:21:17;4.97;;;2.10;;
75885;SDS011;64561;44.018;10.144;2022-12-16T06:24:03;6.65;;;3.50;;
75885;SDS011;64561;44.018;10.144;2022-12-16T06:26:49;5.75;;;2.90;;
75885;SDS011;64561;44.018;10.144;2022-12-16T06:29:34;5.65;;;1.90;;
75885;SDS011;64561;44.018;10.144;2022-12-16T06:32:20;5.68;;;2.80;;
75885;SDS011;64561;44.018;10.144;2022-12-16T06:35:05;9.02;;;2.85;;
75885;SDS011;64561;44.018;10.144;2022-12-16T06:37:51;7.43;;;2.45;;
75885;SDS011;64561;44.018;10.144;2022-12-16T06:40:36;6.68;;;2.20;;
75885;SDS011;64561;44.018;10.144;2022-12-16T06:43:21;6.80;;;3.78;;
75885;SDS011;64561;44.018;10.144;2022-12-16T06:46:07;9.73;;;4.90;;
75885;SDS011;64561;44.018;10.144;2022-12-16T06:48:53;7.97;;;5.22;;
75885;SDS011;64561;44.018;10.144;2022-12-16T06:51:38;7.18;;;4.28;;
75885;SDS011;64561;44.018;10.144;2022-12-16T06:54:23;9.20;;;3.83;;
75885;SDS011;64561;44.018;10.144;2022-12-16T06:57:09;8.95;;;4.32;;
75885;SDS011;64561;44.018;10.144;2022-12-16T06:59:54;9.60;;;4.53;;
75885;SDS011;64561;44.018;10.144;2022-12-16T07:02:40;7.40;;;3.05;;
75885;SDS011;64561;44.018;10.144;2022-12-16T07:05:25;9.60;;;4.40;;
75885;SDS011;64561;44.018;10.144;2022-12-16T07:08:11;7.53;;;3.90;;
75885;SDS011;64561;44.018;10.144;2022-12-16T07:10:57;5.88;;;2.65;;
75885;SDS011;64561;44.018;10.144;2022-12-16T07:13:43;3.67;;;1.83;;
75885;SDS011;64561;44.018;10.144;2022-12-16T07:16:28;6.00;;;2.30;;
75885;SDS011;64561;44.018;10.144;2022-12-16T07:19:14;6.53;;;2.33;;
75885;SDS011;64561;44.018;10.144;2022-12-16T07:22:00;6.68;;;3.20;;
75885;SDS011;64561;44.018;10.144;2022-12-16T07:24:46;3.42;;;1.65;;
75885;SDS011;64561;44.018;10.144;2022-12-16T07:27:31;4.60;;;2.30;;
75885;SDS011;64561;44.018;10.144;2022-12-16T07:30:17;4.85;;;1.92;;
75885;SDS011;64561;44.018;10.144;2022-12-16T07:33:03;4.70;;;2.45;;
75885;SDS011;64561;44.018;10.144;2022-12-16T07:35:48;4.20;;;1.67;;
75885;SDS011;64561;44.018;10.144;2022-12-16T07:38:34;4.60;;;2.00;;
75885;SDS011;64561;44.018;10.144;2022-12-16T07:41:20;7.35;;;2.33;;
75885;SDS011;64561;44.018;10.144;2022-12-16T07:44:10;7.82;;;3.00;;
75885;SDS011;64561;44.018;10.144;2022-12-16T07:46:55;7.20;;;3.33;;
75885;SDS011;64561;44.018;10.144;2022-12-16T07:49:44;12.00;;;3.15;;
75885;SDS011;64561;44.018;10.144;2022-12-16T07:52:29;6.43;;;2.10;;
75885;SDS011;64561;44.018;10.144;2022-12-16T07:55:14;7.30;;;2.00;;
75885;SDS011;64561;44.018;10.144;2022-12-16T07:58:00;5.30;;;1.90;;
75885;SDS011;64561;44.018;10.144;2022-12-16T08:00:45;4.20;;;1.92;;
75885;SDS011;64561;44.018;10.144;2022-12-16T08:06:21;5.53;;;1.80;;
75885;SDS011;64561;44.018;10.144;2022-12-16T08:09:07;5.50;;;2.00;;
75885;SDS011;64561;44.018;10.144;2022-12-16T08:11:52;8.60;;;2.83;;
75885;SDS011;64561;44.018;10.144;2022-12-16T08:14:37;5.28;;;2.30;;
75885;SDS011;64561;44.018;10.144;2022-12-16T08:17:22;4.65;;;2.60;;
75885;SDS011;64561;44.018;10.144;2022-12-16T08:20:08;7.25;;;2.80;;
75885;SDS011;64561;44.018;10.144;2022-12-16T08:22:54;5.15;;;2.38;;
75885;SDS011;64561;44.018;10.144;2022-12-16T08:25:39;7.07;;;2.17;;
75885;SDS011;64561;44.018;10.144;2022-12-16T08:28:24;4.57;;;2.05;;
75885;SDS011;64561;44.018;10.144;2022-12-16T08:31:10;7.10;;;2.30;;
75885;SDS011;64561;44.018;10.144;2022-12-16T08:33:56;6.43;;;1.90;;
75885;SDS011;64561;44.018;10.144;2022-12-16T08:36:41;7.07;;;1.95;;
75885;SDS011;64561;44.018;10.144;2022-12-16T08:39:27;12.10;;;2.42;;
75885;SDS011;64561;44.018;10.144;2022-12-16T08:42:32;7.45;;;2.13;;
75885;SDS011;64561;44.018;10.144;2022-12-16T08:45:18;7.63;;;2.28;;
75885;SDS011;64561;44.018;10.144;2022-12-16T08:48:04;7.95;;;2.42;;
75885;SDS011;64561;44.018;10.144;2022-12-16T08:51:01;11.13;;;2.53;;
75885;SDS011;64561;44.018;10.144;2022-12-16T08:53:48;7.05;;;2.90;;
75885;SDS011;64561;44.018;10.144;2022-12-16T08:56:34;7.28;;;2.40;;
75885;SDS011;64561;44.018;10.144;2022-12-16T08:59:21;5.82;;;2.40;;
75885;SDS011;64561;44.018;10.144;2022-12-16T09:05:45;5.55;;;2.22;;
75885;SDS011;64561;44.018;10.144;2022-12-16T09:08:31;10.23;;;3.47;;
75885;SDS011;64561;44.018;10.144;2022-12-16T09:11:16;7.50;;;2.35;;
75885;SDS011;64561;44.018;10.144;2022-12-16T09:14:01;11.05;;;3.33;;
75885;SDS011;64561;44.018;10.144;2022-12-16T09:16:46;8.25;;;3.05;;
75885;SDS011;64561;44.018;10.144;2022-12-16T09:19:32;5.57;;;2.70;;
75885;SDS011;64561;44.018;10.144;2022-12-16T09:22:19;6.47;;;2.53;;
75885;SDS011;64561;44.018;10.144;2022-12-16T09:25:05;7.22;;;2.55;;
75885;SDS011;64561;44.018;10.144;2022-12-16T09:27:50;7.75;;;3.25;;
75885;SDS011;64561;44.018;10.144;2022-12-16T09:30:36;14.65;;;4.38;;
75885;SDS011;64561;44.018;10.144;2022-12-16T09:33:22;8.90;;;3.67;;
75885;SDS011;64561;44.018;10.144;2022-12-16T09:36:07;10.95;;;3.20;;
75885;SDS011;64561;44.018;10.144;2022-12-16T09:38:52;8.05;;;3.05;;
75885;SDS011;64561;44.018;10.144;2022-12-16T09:41:42;9.77;;;3.80;;
75885;SDS011;64561;44.018;10.144;2022-12-16T09:48:04;7.13;;;2.92;;
75885;SDS011;64561;44.018;10.144;2022-12-16T09:50:56;7.80;;;3.17;;
75885;SDS011;64561;44.018;10.144;2022-12-16T09:53:46;11.10;;;4.85;;
75885;SDS011;64561;44.018;10.144;2022-12-16T09:56:34;12.68;;;5.82;;
75885;SDS011;64561;44.018;10.144;2022-12-16T09:59:23;9.75;;;4.10;;
75885;SDS011;64561;44.018;10.144;2022-12-16T10:02:13;10.40;;;4.30;;
75885;SDS011;64561;44.018;10.144;2022-12-16T10:05:02;9.98;;;5.25;;
75885;SDS011;64561;44.018;10.144;2022-12-16T10:08:00;11.82;;;3.55;;
75885;SDS011;64561;44.018;10.144;2022-12-16T10:11:03;6.10;;;3.50;;
75885;SDS011;64561;44.018;10.144;2022-12-16T10:14:04;8.88;;;2.80;;
75885;SDS011;64561;44.018;10.144;2022-12-16T10:17:15;6.47;;;2.50;;
75885;SDS011;64561;44.018;10.144;2022-12-16T10:20:14;10.18;;;2.85;;
75885;SDS011;64561;44.018;10.144;2022-12-16T10:23:25;7.47;;;3.05;;
75885;SDS011;64561;44.018;10.144;2022-12-16T10:26:22;11.07;;;3.55;;
75885;SDS011;64561;44.018;10.144;2022-12-16T10:29:28;10.43;;;3.67;;
75885;SDS011;64561;44.018;10.144;2022-12-16T10:32:28;11.73;;;4.47;;
75885;SDS011;64561;44.018;10.144;2022-12-16T10:38:42;14.02;;;6.63;;
75885;SDS011;64561;44.018;10.144;2022-12-16T10:41:32;13.43;;;7.28;;
75885;SDS011;64561;44.018;10.144;2022-12-16T10:47:09;11.30;;;6.20;;
75885;SDS011;64561;44.018;10.144;2022-12-16T10:49:56;10.20;;;5.18;;
75885;SDS011;64561;44.018;10.144;2022-12-16T10:52:43;13.63;;;6.80;;
75885;SDS011;64561;44.018;10.144;2022-12-16T10:59:01;12.13;;;4.90;;
75885;SDS011;64561;44.018;10.144;2022-12-16T11:02:02;13.60;;;5.55;;
75885;SDS011;64561;44.018;10.144;2022-12-16T11:04:59;16.25;;;5.95;;
75885;SDS011;64561;44.018;10.144;2022-12-16T11:13:27;9.43;;;4.28;;
75885;SDS011;64561;44.018;10.144;2022-12-16T11:22:22;12.07;;;5.05;;
75885;SDS011;64561;44.018;10.144;2022-12-16T11:25:18;10.95;;;5.53;;
75885;SDS011;64561;44.018;10.144;2022-12-16T11:28:10;10.35;;;5.15;;
75885;SDS011;64561;44.018;10.144;2022-12-16T11:30:58;9.18;;;4.70;;
75885;SDS011;64561;44.018;10.144;2022-12-16T11:33:47;6.18;;;2.92;;
75885;SDS011;64561;44.018;10.144;2022-12-16T11:36:34;11.43;;;2.35;;
75885;SDS011;64561;44.018;10.144;2022-12-16T11:39:23;6.13;;;2.25;;
75885;SDS011;64561;44.018;10.144;2022-12-16T11:42:18;7.47;;;2.70;;
75885;SDS011;64561;44.018;10.144;2022-12-16T11:45:11;9.98;;;2.75;;
75885;SDS011;64561;44.018;10.144;2022-12-16T11:48:16;6.47;;;2.10;;
75885;SDS011;64561;44.018;10.144;2022-12-16T11:51:11;13.00;;;3.50;;
75885;SDS011;64561;44.018;10.144;2022-12-16T11:57:28;14.02;;;5.00;;
75885;SDS011;64561;44.018;10.144;2022-12-16T12:00:23;11.40;;;4.80;;
75885;SDS011;64561;44.018;10.144;2022-12-16T12:03:13;8.43;;;4.75;;
75885;SDS011;64561;44.018;10.144;2022-12-16T12:06:17;8.48;;;4.50;;
75885;SDS011;64561;44.018;10.144;2022-12-16T12:12:26;10.52;;;5.13;;
75885;SDS011;64561;44.018;10.144;2022-12-16T12:18:46;8.63;;;4.68;;
75885;SDS011;64561;44.018;10.144;2022-12-16T12:22:03;6.50;;;4.28;;
75885;SDS011;64561;44.018;10.144;2022-12-16T12:31:13;8.27;;;2.50;;
75885;SDS011;64561;44.018;10.144;2022-12-16T12:34:23;14.98;;;4.15;;
75885;SDS011;64561;44.018;10.144;2022-12-16T12:42:59;8.48;;;4.32;;
75885;SDS011;64561;44.018;10.144;2022-12-16T12:46:00;11.48;;;5.68;;
75885;SDS011;64561;44.018;10.144;2022-12-16T12:49:05;10.25;;;5.40;;
75885;SDS011;64561;44.018;10.144;2022-12-16T12:55:19;14.88;;;7.25;;
75885;SDS011;64561;44.018;10.144;2022-12-16T12:58:12;14.13;;;6.22;;
75885;SDS011;64561;44.018;10.144;2022-12-16T13:01:01;16.80;;;9.05;;
75885;SDS011;64561;44.018;10.144;2022-12-16T13:03:49;13.48;;;6.60;;
75885;SDS011;64561;44.018;10.144;2022-12-16T13:06:45;11.20;;;5.38;;
75885;SDS011;64561;44.018;10.144;2022-12-16T13:09:32;10.65;;;5.28;;
75885;SDS011;64561;44.018;10.144;2022-12-16T13:15:08;9.73;;;5.45;;
75885;SDS011;64561;44.018;10.144;2022-12-16T13:18:23;8.30;;;4.97;;
75885;SDS011;64561;44.018;10.144;2022-12-16T13:27:25;7.35;;;2.40;;
75885;SDS011;64561;44.018;10.144;2022-12-16T13:33:01;5.20;;;2.00;;
75885;SDS011;64561;44.018;10.144;2022-12-16T13:35:51;8.68;;;2.60;;
75885;SDS011;64561;44.018;10.144;2022-12-16T13:38:47;5.63;;;1.70;;
75885;SDS011;64561;44.018;10.144;2022-12-16T13:44:52;4.95;;;1.45;;
75885;SDS011;64561;44.018;10.144;2022-12-16T13:47:57;4.13;;;1.77;;
75885;SDS011;64561;44.018;10.144;2022-12-16T13:50:43;6.10;;;2.55;;
75885;SDS011;64561;44.018;10.144;2022-12-16T13:53:48;2.63;;;1.50;;
75885;SDS011;64561;44.018;10.144;2022-12-16T13:56:44;6.20;;;2.10;;
75885;SDS011;64561;44.018;10.144;2022-12-16T13:59:33;5.43;;;2.70;;
75885;SDS011;64561;44.018;10.144;2022-12-16T14:02:28;7.07;;;3.05;;
75885;SDS011;64561;44.018;10.144;2022-12-16T14:05:18;8.40;;;4.18;;
75885;SDS011;64561;44.018;10.144;2022-12-16T14:08:14;14.80;;;6.88;;
75885;SDS011;64561;44.018;10.144;2022-12-16T14:11:03;12.55;;;8.10;;
75885;SDS011;64561;44.018;10.144;2022-12-16T14:13:59;14.85;;;9.30;;
75885;SDS011;64561;44.018;10.144;2022-12-16T14:16:53;25.75;;;14.43;;
75885;SDS011;64561;44.018;10.144;2022-12-16T14:22:49;25.52;;;13.77;;
75885;SDS011;64561;44.018;10.144;2022-12-16T14:26:01;19.02;;;10.02;;
75885;SDS011;64561;44.018;10.144;2022-12-16T14:28:47;23.85;;;13.93;;
75885;SDS011;64561;44.018;10.144;2022-12-16T14:31:37;20.42;;;16.00;;
75885;SDS011;64561;44.018;10.144;2022-12-16T14:34:41;23.55;;;15.02;;
75885;SDS011;64561;44.018;10.144;2022-12-16T14:37:36;27.20;;;17.05;;
75885;SDS011;64561;44.018;10.144;2022-12-16T14:40:28;19.25;;;12.85;;
75885;SDS011;64561;44.018;10.144;2022-12-16T14:43:23;15.52;;;12.70;;
75885;SDS011;64561;44.018;10.144;2022-12-16T14:46:29;17.90;;;12.07;;
75885;SDS011;64561;44.018;10.144;2022-12-16T14:49:23;15.30;;;10.80;;
75885;SDS011;64561;44.018;10.144;2022-12-16T14:52:23;20.55;;;12.85;;
75885;SDS011;64561;44.018;10.144;2022-12-16T15:01:19;22.13;;;13.60;;
75885;SDS011;64561;44.018;10.144;2022-12-16T15:04:18;19.27;;;12.77;;
75885;SDS011;64561;44.018;10.144;2022-12-16T15:07:06;16.67;;;11.77;;
75885;SDS011;64561;44.018;10.144;2022-12-16T15:09:58;16.70;;;9.93;;
75885;SDS011;64561;44.018;10.144;2022-12-16T15:12:44;13.43;;;7.15;;
75885;SDS011;64561;44.018;10.144;2022-12-16T15:15:33;12.02;;;7.60;;
75885;SDS011;64561;44.018;10.144;2022-12-16T15:18:30;13.63;;;8.70;;
75885;SDS011;64561;44.018;10.144;2022-12-16T15:21:19;14.57;;;9.68;;
75885;SDS011;64561;44.018;10.144;2022-12-16T15:24:08;16.17;;;7.45;;
75885;SDS011;64561;44.018;10.144;2022-12-16T15:33:18;21.50;;;12.95;;
75885;SDS011;64561;44.018;10.144;2022-12-16T15:36:05;14.05;;;8.73;;
75885;SDS011;64561;44.018;10.144;2022-12-16T15:38:56;16.98;;;9.07;;
75885;SDS011;64561;44.018;10.144;2022-12-16T15:41:45;13.43;;;8.10;;
75885;SDS011;64561;44.018;10.144;2022-12-16T15:44:31;16.95;;;9.35;;
75885;SDS011;64561;44.018;10.144;2022-12-16T15:47:24;16.40;;;9.68;;
75885;SDS011;64561;44.018;10.144;2022-12-16T15:50:17;13.95;;;8.82;;
75885;SDS011;64561;44.018;10.144;2022-12-16T15:56:22;15.40;;;9.10;;
75885;SDS011;64561;44.018;10.144;2022-12-16T15:59:25;12.85;;;8.35;;
75885;SDS011;64561;44.018;10.144;2022-12-16T16:05:12;7.38;;;4.90;;
75885;SDS011;64561;44.018;10.144;2022-12-16T16:07:59;4.85;;;2.75;;
75885;SDS011;64561;44.018;10.144;2022-12-16T16:10:45;5.35;;;2.25;;
75885;SDS011;64561;44.018;10.144;2022-12-16T16:13:31;3.92;;;2.00;;
75885;SDS011;64561;44.018;10.144;2022-12-16T16:16:16;3.35;;;2.20;;
75885;SDS011;64561;44.018;10.144;2022-12-16T16:19:02;5.80;;;4.20;;
75885;SDS011;64561;44.018;10.144;2022-12-16T16:21:48;22.70;;;15.45;;
75885;SDS011;64561;44.018;10.144;2022-12-16T16:24:34;19.63;;;12.65;;
75885;SDS011;64561;44.018;10.144;2022-12-16T16:27:19;20.60;;;13.75;;
75885;SDS011;64561;44.018;10.144;2022-12-16T16:30:05;22.08;;;15.07;;
75885;SDS011;64561;44.018;10.144;2022-12-16T16:32:54;16.30;;;13.00;;
75885;SDS011;64561;44.018;10.144;2022-12-16T16:35:39;18.70;;;11.85;;
75885;SDS011;64561;44.018;10.144;2022-12-16T16:38:25;10.75;;;6.53;;
75885;SDS011;64561;44.018;10.144;2022-12-16T16:41:12;5.18;;;3.10;;
75885;SDS011;64561;44.018;10.144;2022-12-16T16:43:59;6.70;;;3.20;;
75885;SDS011;64561;44.018;10.144;2022-12-16T16:46:45;6.78;;;3.20;;
75885;SDS011;64561;44.018;10.144;2022-12-16T16:49:33;3.85;;;2.47;;
75885;SDS011;64561;44.018;10.144;2022-12-16T16:52:22;5.93;;;2.50;;
75885;SDS011;64561;44.018;10.144;2022-12-16T16:55:14;6.72;;;3.60;;
75885;SDS011;64561;44.018;10.144;2022-12-16T16:58:04;10.27;;;7.55;;
75885;SDS011;64561;44.018;10.144;2022-12-16T17:01:03;19.75;;;13.32;;
75885;SDS011;64561;44.018;10.144;2022-12-16T17:03:48;19.98;;;13.65;;
75885;SDS011;64561;44.018;10.144;2022-12-16T17:06:34;24.17;;;16.48;;
75885;SDS011;64561;44.018;10.144;2022-12-16T17:09:21;22.85;;;15.45;;
75885;SDS011;64561;44.018;10.144;2022-12-16T17:12:14;24.20;;;14.30;;
75885;SDS011;64561;44.018;10.144;2022-12-16T17:18:05;6.25;;;4.97;;
75885;SDS011;64561;44.018;10.144;2022-12-16T17:20:52;8.45;;;5.70;;
75885;SDS011;64561;44.018;10.144;2022-12-16T17:23:38;8.85;;;6.55;;
75885;SDS011;64561;44.018;10.144;2022-12-16T17:26:24;8.30;;;5.93;;
75885;SDS011;64561;44.018;10.144;2022-12-16T17:29:20;6.75;;;5.80;;
75885;SDS011;64561;44.018;10.144;2022-12-16T17:32:08;10.13;;;8.32;;
75885;SDS011;64561;44.018;10.144;2022-12-16T17:34:53;9.88;;;7.10;;
75885;SDS011;64561;44.018;10.144;2022-12-16T17:37:39;12.77;;;9.02;;
75885;SDS011;64561;44.018;10.144;2022-12-16T17:40:25;10.50;;;7.50;;
75885;SDS011;64561;44.018;10.144;2022-12-16T17:43:11;16.05;;;9.85;;
75885;SDS011;64561;44.018;10.144;2022-12-16T17:45:58;12.68;;;8.13;;
75885;SDS011;64561;44.018;10.144;2022-12-16T17:48:49;16.95;;;10.80;;
75885;SDS011;64561;44.018;10.144;2022-12-16T17:51:39;12.88;;;10.00;;
75885;SDS011;64561;44.018;10.144;2022-12-16T17:54:28;15.00;;;9.90;;
75885;SDS011;64561;44.018;10.144;2022-12-16T17:57:13;16.42;;;10.57;;
75885;SDS011;64561;44.018;10.144;2022-12-16T17:59:59;12.13;;;9.25;;
75885;SDS011;64561;44.018;10.144;2022-12-16T18:02:49;11.68;;;8.68;;
75885;SDS011;64561;44.018;10.144;2022-12-16T18:05:35;23.00;;;16.42;;
75885;SDS011;64561;44.018;10.144;2022-12-16T18:08:20;20.33;;;13.60;;
75885;SDS011;64561;44.018;10.144;2022-12-16T18:11:06;9.50;;;7.10;;
75885;SDS011;64561;44.018;10.144;2022-12-16T18:13:52;12.15;;;7.28;;
75885;SDS011;64561;44.018;10.144;2022-12-16T18:16:37;26.60;;;18.17;;
75885;SDS011;64561;44.018;10.144;2022-12-16T18:19:23;27.45;;;18.17;;
75885;SDS011;64561;44.018;10.144;2022-12-16T18:22:09;30.83;;;21.42;;
75885;SDS011;64561;44.018;10.144;2022-12-16T18:24:55;38.90;;;24.60;;
75885;SDS011;64561;44.018;10.144;2022-12-16T18:27:40;28.65;;;18.67;;